sensor_id;sensor_type;location;lat;lon;timestamp;pressure;altitude;pressure_sealevel;temperature;humidity
62025;BME280;47978;49.118;12.146;2022-07-30T00:01:53;97422.22;;;17.26;91.85
62025;BME280;47978;49.118;12.146;2022-07-30T00:04:21;97421.44;;;17.14;91.86
62025;BME280;47978;49.118;12.146;2022-07-30T00:06:47;97432.75;;;17.05;92.14
62025;BME280;47978;49.118;12.146;2022-07-30T00:09:14;97430.97;;;17.13;92.01
62025;BME280;47978;49.118;12.146;2022-07-30T00:11:41;97420.50;;;17.22;91.48
62025;BME280;47978;49.118;12.146;2022-07-30T00:14:07;97412.56;;;17.36;90.66
62025;BME280;47978;49.118;12.146;2022-07-30T00:16:34;97413.94;;;17.30;90.98
62025;BME280;47978;49.118;12.146;2022-07-30T00:19:01;97413.13;;;17.29;90.90
62025;BME280;47978;49.118;12.146;2022-07-30T00:21:29;97413.94;;;17.30;91.06
62025;BME280;47978;49.118;12.146;2022-07-30T00:24:05;97407.53;;;17.29;90.73
62025;BME280;47978;49.118;12.146;2022-07-30T00:26:32;97411.03;;;17.26;90.78
62025;BME280;47978;49.118;12.146;2022-07-30T00:28:58;97404.97;;;17.37;90.75
62025;BME280;47978;49.118;12.146;2022-07-30T00:31:25;97408.16;;;17.23;90.76
62025;BME280;47978;49.118;12.146;2022-07-30T00:33:52;97411.19;;;17.18;91.61
62025;BME280;47978;49.118;12.146;2022-07-30T00:36:19;97402.09;;;17.21;91.20
62025;BME280;47978;49.118;12.146;2022-07-30T00:38:47;97396.38;;;17.29;90.61
62025;BME280;47978;49.118;12.146;2022-07-30T00:41:13;97393.09;;;17.27;90.06
62025;BME280;47978;49.118;12.146;2022-07-30T00:43:41;97394.75;;;17.28;90.01
62025;BME280;47978;49.118;12.146;2022-07-30T00:46:07;97387.88;;;17.26;90.27
62025;BME280;47978;49.118;12.146;2022-07-30T00:48:34;97393.72;;;17.08;90.92
62025;BME280;47978;49.118;12.146;2022-07-30T00:51:01;97393.88;;;17.00;91.85
62025;BME280;47978;49.118;12.146;2022-07-30T00:53:28;97397.81;;;16.99;92.08
62025;BME280;47978;49.118;12.146;2022-07-30T00:55:56;97398.03;;;17.06;91.81
62025;BME280;47978;49.118;12.146;2022-07-30T00:58:23;97402.59;;;17.11;91.51
62025;BME280;47978;49.118;12.146;2022-07-30T01:01:24;97399.09;;;17.14;91.32
62025;BME280;47978;49.118;12.146;2022-07-30T01:03:50;97400.22;;;17.13;91.43
62025;BME280;47978;49.118;12.146;2022-07-30T01:06:18;97400.59;;;17.11;91.58
62025;BME280;47978;49.118;12.146;2022-07-30T01:08:44;97390.22;;;17.12;91.72
62025;BME280;47978;49.118;12.146;2022-07-30T01:11:13;97395.22;;;17.18;91.18
62025;BME280;47978;49.118;12.146;2022-07-30T01:13:39;97393.84;;;17.12;91.12
62025;BME280;47978;49.118;12.146;2022-07-30T01:16:06;97388.63;;;17.11;91.11
62025;BME280;47978;49.118;12.146;2022-07-30T01:18:33;97383.13;;;17.14;91.05
62025;BME280;47978;49.118;12.146;2022-07-30T01:21:04;97394.22;;;17.11;91.57
62025;BME280;47978;49.118;12.146;2022-07-30T01:23:36;97390.34;;;17.15;90.89
62025;BME280;47978;49.118;12.146;2022-07-30T01:26:11;97394.19;;;17.23;90.52
62025;BME280;47978;49.118;12.146;2022-07-30T01:28:41;97393.94;;;17.28;90.27
62025;BME280;47978;49.118;12.146;2022-07-30T01:31:12;97402.78;;;17.18;90.25
62025;BME280;47978;49.118;12.146;2022-07-30T01:33:42;97406.66;;;16.89;92.12
62025;BME280;47978;49.118;12.146;2022-07-30T01:36:13;97396.41;;;16.93;92.23
62025;BME280;47978;49.118;12.146;2022-07-30T01:38:42;97399.34;;;16.96;92.26
62025;BME280;47978;49.118;12.146;2022-07-30T01:41:11;97403.06;;;17.00;92.00
62025;BME280;47978;49.118;12.146;2022-07-30T01:43:39;97403.63;;;17.06;91.58
62025;BME280;47978;49.118;12.146;2022-07-30T01:46:07;97410.25;;;17.01;91.72
62025;BME280;47978;49.118;12.146;2022-07-30T01:48:37;97413.19;;;17.05;91.86
62025;BME280;47978;49.118;12.146;2022-07-30T01:51:06;97410.84;;;17.07;91.70
62025;BME280;47978;49.118;12.146;2022-07-30T01:53:35;97409.22;;;17.06;91.92
62025;BME280;47978;49.118;12.146;2022-07-30T01:56:04;97401.50;;;17.15;91.65
62025;BME280;47978;49.118;12.146;2022-07-30T01:58:38;97399.28;;;17.21;91.27
62025;BME280;47978;49.118;12.146;2022-07-30T02:01:05;97408.16;;;17.23;90.57
62025;BME280;47978;49.118;12.146;2022-07-30T02:03:33;97406.53;;;17.22;91.16
62025;BME280;47978;49.118;12.146;2022-07-30T02:06:03;97398.50;;;17.20;91.25
62025;BME280;47978;49.118;12.146;2022-07-30T02:08:35;97402.09;;;17.21;91.06
62025;BME280;47978;49.118;12.146;2022-07-30T02:11:06;97400.81;;;17.18;91.43
62025;BME280;47978;49.118;12.146;2022-07-30T02:13:40;97398.81;;;17.19;91.69
62025;BME280;47978;49.118;12.146;2022-07-30T02:16:14;97398.16;;;17.22;91.67
62025;BME280;47978;49.118;12.146;2022-07-30T02:18:47;97398.50;;;17.20;91.31
62025;BME280;47978;49.118;12.146;2022-07-30T02:21:19;97390.19;;;17.24;90.93
62025;BME280;47978;49.118;12.146;2022-07-30T02:23:47;97392.09;;;17.20;91.24
62025;BME280;47978;49.118;12.146;2022-07-30T02:26:17;97394.78;;;17.04;91.62
62025;BME280;47978;49.118;12.146;2022-07-30T02:28:52;97400.84;;;17.06;91.45
62025;BME280;47978;49.118;12.146;2022-07-30T02:31:22;97395.16;;;17.02;91.27
62025;BME280;47978;49.118;12.146;2022-07-30T02:33:54;97391.88;;;17.00;91.41
62025;BME280;47978;49.118;12.146;2022-07-30T02:36:21;97390.13;;;16.96;91.61
62025;BME280;47978;49.118;12.146;2022-07-30T02:38:50;97392.91;;;16.96;91.40
62025;BME280;47978;49.118;12.146;2022-07-30T02:41:18;97387.13;;;16.89;90.69
62025;BME280;47978;49.118;12.146;2022-07-30T02:43:48;97404.69;;;16.89;91.01
62025;BME280;47978;49.118;12.146;2022-07-30T02:46:17;97394.56;;;16.84;90.79
62025;BME280;47978;49.118;12.146;2022-07-30T02:48:45;97396.91;;;16.82;90.92
62025;BME280;47978;49.118;12.146;2022-07-30T02:51:15;97397.59;;;16.79;90.31
62025;BME280;47978;49.118;12.146;2022-07-30T02:53:45;97396.19;;;16.85;90.37
62025;BME280;47978;49.118;12.146;2022-07-30T02:56:13;97393.50;;;16.89;90.16
62025;BME280;47978;49.118;12.146;2022-07-30T02:58:41;97395.59;;;16.92;89.93
62025;BME280;47978;49.118;12.146;2022-07-30T03:01:12;97393.75;;;16.84;89.69
62025;BME280;47978;49.118;12.146;2022-07-30T03:03:39;97391.75;;;16.84;90.13
62025;BME280;47978;49.118;12.146;2022-07-30T03:06:07;97388.25;;;16.88;89.49
62025;BME280;47978;49.118;12.146;2022-07-30T03:08:34;97395.63;;;16.80;89.99
62025;BME280;47978;49.118;12.146;2022-07-30T03:11:02;97387.81;;;16.85;89.39
62025;BME280;47978;49.118;12.146;2022-07-30T03:13:30;97388.38;;;16.79;89.80
62025;BME280;47978;49.118;12.146;2022-07-30T03:15:57;97390.56;;;16.73;90.31
62025;BME280;47978;49.118;12.146;2022-07-30T03:18:26;97387.78;;;16.73;90.52
62025;BME280;47978;49.118;12.146;2022-07-30T03:20:56;97390.47;;;16.70;90.36
62025;BME280;47978;49.118;12.146;2022-07-30T03:23:24;97383.94;;;16.66;90.50
62025;BME280;47978;49.118;12.146;2022-07-30T03:25:53;97397.34;;;16.60;90.81
62025;BME280;47978;49.118;12.146;2022-07-30T03:28:23;97385.34;;;16.59;91.23
62025;BME280;47978;49.118;12.146;2022-07-30T03:30:51;97387.56;;;16.54;91.29
62025;BME280;47978;49.118;12.146;2022-07-30T03:33:19;97394.88;;;16.46;91.40
62025;BME280;47978;49.118;12.146;2022-07-30T03:35:49;97398.38;;;16.55;91.26
62025;BME280;47978;49.118;12.146;2022-07-30T03:38:17;97393.13;;;16.54;91.30
62025;BME280;47978;49.118;12.146;2022-07-30T03:40:45;97391.97;;;16.42;91.79
62025;BME280;47978;49.118;12.146;2022-07-30T03:43:13;97392.41;;;16.45;91.34
62025;BME280;47978;49.118;12.146;2022-07-30T03:46:00;97399.88;;;16.40;91.28
62025;BME280;47978;49.118;12.146;2022-07-30T03:48:28;97398.25;;;16.39;91.56
62025;BME280;47978;49.118;12.146;2022-07-30T03:50:57;97406.72;;;16.43;91.37
62025;BME280;47978;49.118;12.146;2022-07-30T03:53:25;97412.19;;;16.39;90.91
62025;BME280;47978;49.118;12.146;2022-07-30T03:55:52;97409.84;;;16.29;90.99
62025;BME280;47978;49.118;12.146;2022-07-30T03:58:19;97408.91;;;16.25;91.59
62025;BME280;47978;49.118;12.146;2022-07-30T04:00:46;97412.16;;;16.27;91.05
62025;BME280;47978;49.118;12.146;2022-07-30T04:03:13;97417.63;;;16.24;90.83
62025;BME280;47978;49.118;12.146;2022-07-30T04:05:40;97417.84;;;16.18;91.12
62025;BME280;47978;49.118;12.146;2022-07-30T04:08:08;97421.59;;;16.23;90.37
62025;BME280;47978;49.118;12.146;2022-07-30T04:10:35;97421.69;;;16.26;90.21
62025;BME280;47978;49.118;12.146;2022-07-30T04:13:01;97423.78;;;16.29;89.96
62025;BME280;47978;49.118;12.146;2022-07-30T04:15:40;97425.28;;;16.27;89.42
62025;BME280;47978;49.118;12.146;2022-07-30T04:18:33;97435.16;;;16.24;89.53
62025;BME280;47978;49.118;12.146;2022-07-30T04:21:04;97429.16;;;16.34;89.14
62025;BME280;47978;49.118;12.146;2022-07-30T04:23:43;97439.13;;;16.23;88.87
62025;BME280;47978;49.118;12.146;2022-07-30T04:26:31;97429.56;;;16.12;89.32
62025;BME280;47978;49.118;12.146;2022-07-30T04:28:58;97431.28;;;16.04;89.83
62025;BME280;47978;49.118;12.146;2022-07-30T04:31:25;97425.59;;;16.13;89.71
62025;BME280;47978;49.118;12.146;2022-07-30T04:33:52;97436.44;;;16.14;89.67
62025;BME280;47978;49.118;12.146;2022-07-30T04:36:19;97435.63;;;16.14;89.19
62025;BME280;47978;49.118;12.146;2022-07-30T04:38:47;97435.03;;;16.08;89.35
62025;BME280;47978;49.118;12.146;2022-07-30T04:41:14;97438.84;;;16.16;89.90
62025;BME280;47978;49.118;12.146;2022-07-30T04:43:40;97436.56;;;16.18;89.17
62025;BME280;47978;49.118;12.146;2022-07-30T04:46:07;97437.47;;;16.22;88.77
62025;BME280;47978;49.118;12.146;2022-07-30T04:48:33;97443.31;;;16.29;88.83
62025;BME280;47978;49.118;12.146;2022-07-30T04:51:01;97443.75;;;16.19;89.07
62025;BME280;47978;49.118;12.146;2022-07-30T04:53:31;97445.22;;;16.04;90.34
62025;BME280;47978;49.118;12.146;2022-07-30T04:56:00;97455.78;;;15.99;91.09
62025;BME280;47978;49.118;12.146;2022-07-30T04:58:28;97456.13;;;15.97;91.03
62025;BME280;47978;49.118;12.146;2022-07-30T05:00:56;97450.47;;;16.06;91.84
62025;BME280;47978;49.118;12.146;2022-07-30T05:03:23;97452.44;;;16.05;92.05
62025;BME280;47978;49.118;12.146;2022-07-30T05:05:51;97456.28;;;16.13;92.15
62025;BME280;47978;49.118;12.146;2022-07-30T05:08:22;97446.41;;;16.15;92.38
62025;BME280;47978;49.118;12.146;2022-07-30T05:10:49;97446.59;;;16.31;92.05
62025;BME280;47978;49.118;12.146;2022-07-30T05:13:19;97451.59;;;16.38;92.31
62025;BME280;47978;49.118;12.146;2022-07-30T05:15:47;97443.00;;;16.43;92.74
62025;BME280;47978;49.118;12.146;2022-07-30T05:18:14;97449.88;;;16.46;93.09
62025;BME280;47978;49.118;12.146;2022-07-30T05:20:41;97449.66;;;16.51;93.59
62025;BME280;47978;49.118;12.146;2022-07-30T05:23:07;97441.72;;;16.40;93.79
62025;BME280;47978;49.118;12.146;2022-07-30T05:25:34;97450.91;;;16.41;93.58
62025;BME280;47978;49.118;12.146;2022-07-30T05:28:00;97458.59;;;16.44;94.07
62025;BME280;47978;49.118;12.146;2022-07-30T05:30:28;97455.59;;;16.61;93.09
62025;BME280;47978;49.118;12.146;2022-07-30T05:32:55;97455.75;;;16.65;92.86
62025;BME280;47978;49.118;12.146;2022-07-30T05:35:21;97455.16;;;16.72;92.41
62025;BME280;47978;49.118;12.146;2022-07-30T05:37:48;97461.00;;;16.79;91.72
62025;BME280;47978;49.118;12.146;2022-07-30T05:40:14;97455.06;;;16.80;90.92
62025;BME280;47978;49.118;12.146;2022-07-30T05:42:41;97465.53;;;16.96;90.36
62025;BME280;47978;49.118;12.146;2022-07-30T05:45:08;97468.59;;;16.91;90.54
62025;BME280;47978;49.118;12.146;2022-07-30T05:47:36;97467.41;;;17.04;90.30
62025;BME280;47978;49.118;12.146;2022-07-30T05:50:03;97471.13;;;16.96;90.52
62025;BME280;47978;49.118;12.146;2022-07-30T05:52:31;97465.44;;;16.92;90.16
62025;BME280;47978;49.118;12.146;2022-07-30T05:54:57;97480.69;;;16.95;90.61
62025;BME280;47978;49.118;12.146;2022-07-30T05:57:24;97478.00;;;16.98;90.49
62025;BME280;47978;49.118;12.146;2022-07-30T05:59:51;97490.34;;;17.09;89.94
62025;BME280;47978;49.118;12.146;2022-07-30T06:02:17;97483.13;;;17.21;88.79
62025;BME280;47978;49.118;12.146;2022-07-30T06:04:46;97491.63;;;17.24;88.91
62025;BME280;47978;49.118;12.146;2022-07-30T06:07:12;97494.88;;;17.39;88.43
62025;BME280;47978;49.118;12.146;2022-07-30T06:09:39;97490.22;;;17.43;87.51
62025;BME280;47978;49.118;12.146;2022-07-30T06:12:05;97488.13;;;17.52;86.77
62025;BME280;47978;49.118;12.146;2022-07-30T06:14:32;97493.56;;;17.61;85.90
62025;BME280;47978;49.118;12.146;2022-07-30T06:16:58;97496.94;;;17.66;85.94
62025;BME280;47978;49.118;12.146;2022-07-30T06:19:26;97508.38;;;17.61;85.65
62025;BME280;47978;49.118;12.146;2022-07-30T06:21:53;97497.31;;;17.65;85.18
62025;BME280;47978;49.118;12.146;2022-07-30T06:24:32;97504.41;;;17.50;85.77
62025;BME280;47978;49.118;12.146;2022-07-30T06:26:59;97502.91;;;17.40;86.74
62025;BME280;47978;49.118;12.146;2022-07-30T06:29:26;97500.25;;;17.56;85.98
62025;BME280;47978;49.118;12.146;2022-07-30T06:31:52;97510.00;;;17.62;85.83
62025;BME280;47978;49.118;12.146;2022-07-30T06:34:19;97510.13;;;17.53;86.23
62025;BME280;47978;49.118;12.146;2022-07-30T06:36:46;97497.88;;;17.58;85.73
62025;BME280;47978;49.118;12.146;2022-07-30T06:39:14;97506.84;;;17.76;85.14
62025;BME280;47978;49.118;12.146;2022-07-30T06:42:00;97506.00;;;17.75;85.20
62025;BME280;47978;49.118;12.146;2022-07-30T06:44:27;97506.50;;;17.65;86.09
62025;BME280;47978;49.118;12.146;2022-07-30T06:46:54;97508.38;;;17.73;85.10
62025;BME280;47978;49.118;12.146;2022-07-30T06:49:20;97515.47;;;17.71;84.66
62025;BME280;47978;49.118;12.146;2022-07-30T06:51:47;97512.91;;;17.78;84.48
62025;BME280;47978;49.118;12.146;2022-07-30T06:54:15;97517.94;;;17.85;84.83
62025;BME280;47978;49.118;12.146;2022-07-30T06:56:42;97517.94;;;17.85;85.04
62025;BME280;47978;49.118;12.146;2022-07-30T06:59:09;97521.06;;;17.83;85.38
62025;BME280;47978;49.118;12.146;2022-07-30T07:01:35;97529.09;;;17.72;86.45
62025;BME280;47978;49.118;12.146;2022-07-30T07:04:02;97524.91;;;17.79;86.46
62025;BME280;47978;49.118;12.146;2022-07-30T07:06:29;97519.41;;;17.94;85.30
62025;BME280;47978;49.118;12.146;2022-07-30T07:08:55;97525.66;;;18.16;83.44
62025;BME280;47978;49.118;12.146;2022-07-30T07:11:23;97522.16;;;18.07;84.47
62025;BME280;47978;49.118;12.146;2022-07-30T07:13:50;97518.38;;;18.27;84.11
62025;BME280;47978;49.118;12.146;2022-07-30T07:16:17;97516.97;;;18.49;82.44
62025;BME280;47978;49.118;12.146;2022-07-30T07:18:43;97517.91;;;18.69;81.08
62025;BME280;47978;49.118;12.146;2022-07-30T07:21:10;97520.31;;;18.83;81.48
62025;BME280;47978;49.118;12.146;2022-07-30T07:23:36;97517.44;;;19.11;79.51
62025;BME280;47978;49.118;12.146;2022-07-30T07:26:09;97510.38;;;19.17;79.57
62025;BME280;47978;49.118;12.146;2022-07-30T07:28:37;97508.78;;;18.72;81.34
62025;BME280;47978;49.118;12.146;2022-07-30T07:31:03;97512.38;;;18.85;80.79
62025;BME280;47978;49.118;12.146;2022-07-30T07:33:30;97521.69;;;19.05;80.19
62025;BME280;47978;49.118;12.146;2022-07-30T07:35:57;97519.53;;;18.98;79.56
62025;BME280;47978;49.118;12.146;2022-07-30T07:38:23;97524.13;;;19.06;79.23
62025;BME280;47978;49.118;12.146;2022-07-30T07:40:50;97529.72;;;19.06;79.89
62025;BME280;47978;49.118;12.146;2022-07-30T07:43:16;97523.03;;;18.95;80.34
62025;BME280;47978;49.118;12.146;2022-07-30T07:45:44;97525.84;;;18.95;80.38
62025;BME280;47978;49.118;12.146;2022-07-30T07:48:11;97518.34;;;19.31;78.85
62025;BME280;47978;49.118;12.146;2022-07-30T07:50:40;97516.66;;;19.77;77.57
62025;BME280;47978;49.118;12.146;2022-07-30T07:53:07;97516.44;;;19.67;76.65
62025;BME280;47978;49.118;12.146;2022-07-30T07:55:33;97511.38;;;20.31;75.51
62025;BME280;47978;49.118;12.146;2022-07-30T07:58:00;97507.88;;;20.76;73.91
62025;BME280;47978;49.118;12.146;2022-07-30T08:00:27;97507.44;;;21.20;71.70
62025;BME280;47978;49.118;12.146;2022-07-30T08:02:55;97507.53;;;20.78;71.85
62025;BME280;47978;49.118;12.146;2022-07-30T08:05:22;97508.34;;;21.01;70.37
62025;BME280;47978;49.118;12.146;2022-07-30T08:07:49;97510.53;;;21.34;69.19
62025;BME280;47978;49.118;12.146;2022-07-30T08:10:16;97510.22;;;21.17;70.25
62025;BME280;47978;49.118;12.146;2022-07-30T08:12:42;97507.41;;;21.40;71.30
62025;BME280;47978;49.118;12.146;2022-07-30T08:15:09;97507.84;;;21.95;68.70
62025;BME280;47978;49.118;12.146;2022-07-30T08:17:38;97507.50;;;22.00;66.87
62025;BME280;47978;49.118;12.146;2022-07-30T08:20:07;97507.06;;;21.98;67.22
62025;BME280;47978;49.118;12.146;2022-07-30T08:22:34;97504.47;;;21.86;67.94
62025;BME280;47978;49.118;12.146;2022-07-30T08:25:01;97511.19;;;22.04;65.61
62025;BME280;47978;49.118;12.146;2022-07-30T08:27:29;97514.13;;;22.45;64.64
62025;BME280;47978;49.118;12.146;2022-07-30T08:29:56;97509.84;;;22.92;64.35
62025;BME280;47978;49.118;12.146;2022-07-30T08:32:23;97514.41;;;22.33;64.70
62025;BME280;47978;49.118;12.146;2022-07-30T08:34:50;97521.69;;;22.07;63.86
62025;BME280;47978;49.118;12.146;2022-07-30T08:37:18;97519.53;;;22.23;63.89
62025;BME280;47978;49.118;12.146;2022-07-30T08:39:44;97517.81;;;22.49;62.60
62025;BME280;47978;49.118;12.146;2022-07-30T08:42:12;97514.91;;;22.79;62.51
62025;BME280;47978;49.118;12.146;2022-07-30T08:44:39;97503.44;;;22.95;61.99
62025;BME280;47978;49.118;12.146;2022-07-30T08:47:08;97499.34;;;22.89;61.65
62025;BME280;47978;49.118;12.146;2022-07-30T08:49:36;97514.06;;;22.72;62.37
62025;BME280;47978;49.118;12.146;2022-07-30T08:52:04;97514.06;;;22.72;61.30
62025;BME280;47978;49.118;12.146;2022-07-30T08:54:32;97505.66;;;22.41;62.49
62025;BME280;47978;49.118;12.146;2022-07-30T08:56:59;97510.66;;;22.55;62.72
62025;BME280;47978;49.118;12.146;2022-07-30T08:59:26;97504.53;;;22.50;61.66
62025;BME280;47978;49.118;12.146;2022-07-30T09:02:13;97508.28;;;22.61;61.37
62025;BME280;47978;49.118;12.146;2022-07-30T09:04:51;97513.31;;;22.78;60.21
62025;BME280;47978;49.118;12.146;2022-07-30T09:07:18;97506.13;;;22.84;59.71
62025;BME280;47978;49.118;12.146;2022-07-30T09:09:47;97501.66;;;23.21;59.63
62025;BME280;47978;49.118;12.146;2022-07-30T09:12:38;97504.03;;;23.15;59.17
62025;BME280;47978;49.118;12.146;2022-07-30T09:15:08;97508.44;;;23.61;58.93
62025;BME280;47978;49.118;12.146;2022-07-30T09:17:53;97503.81;;;23.38;58.32
62025;BME280;47978;49.118;12.146;2022-07-30T09:20:21;97496.47;;;23.23;58.89
62025;BME280;47978;49.118;12.146;2022-07-30T09:22:50;97501.34;;;23.29;56.79
62025;BME280;47978;49.118;12.146;2022-07-30T09:25:31;97507.66;;;23.64;56.14
62025;BME280;47978;49.118;12.146;2022-07-30T09:27:58;97501.19;;;23.60;55.51
62025;BME280;47978;49.118;12.146;2022-07-30T09:30:25;97504.47;;;23.17;57.32
62025;BME280;47978;49.118;12.146;2022-07-30T09:32:57;97506.44;;;23.13;57.98
62025;BME280;47978;49.118;12.146;2022-07-30T09:35:24;97510.19;;;23.28;59.18
62025;BME280;47978;49.118;12.146;2022-07-30T09:37:57;97504.47;;;23.17;57.23
62025;BME280;47978;49.118;12.146;2022-07-30T09:40:33;97510.22;;;23.31;57.56
62025;BME280;47978;49.118;12.146;2022-07-30T09:43:04;97504.50;;;23.24;57.22
62025;BME280;47978;49.118;12.146;2022-07-30T09:45:31;97506.44;;;23.13;57.23
62025;BME280;47978;49.118;12.146;2022-07-30T09:48:01;97514.44;;;23.07;57.58
62025;BME280;47978;49.118;12.146;2022-07-30T09:50:28;97523.50;;;22.90;57.95
62025;BME280;47978;49.118;12.146;2022-07-30T09:53:05;97519.28;;;22.73;57.93
62025;BME280;47978;49.118;12.146;2022-07-30T09:55:35;97519.41;;;22.84;57.69
62025;BME280;47978;49.118;12.146;2022-07-30T09:58:09;97514.31;;;23.38;57.22
62025;BME280;47978;49.118;12.146;2022-07-30T10:00:45;97511.72;;;23.18;56.91
62025;BME280;47978;49.118;12.146;2022-07-30T10:03:18;97522.94;;;23.11;56.19
62025;BME280;47978;49.118;12.146;2022-07-30T10:06:00;97514.19;;;23.23;55.26
62025;BME280;47978;49.118;12.146;2022-07-30T10:08:38;97517.69;;;23.09;56.66
62025;BME280;47978;49.118;12.146;2022-07-30T10:11:09;97509.28;;;23.17;56.68
62025;BME280;47978;49.118;12.146;2022-07-30T10:13:37;97515.78;;;23.21;56.44
62025;BME280;47978;49.118;12.146;2022-07-30T10:16:07;97521.34;;;23.13;55.68
62025;BME280;47978;49.118;12.146;2022-07-30T10:18:35;97512.28;;;23.34;54.87
62025;BME280;47978;49.118;12.146;2022-07-30T10:21:02;97515.53;;;23.40;53.25
62025;BME280;47978;49.118;12.146;2022-07-30T10:23:31;97525.84;;;23.70;54.44
62025;BME280;47978;49.118;12.146;2022-07-30T10:25:59;97510.56;;;23.71;53.02
62025;BME280;47978;49.118;12.146;2022-07-30T10:28:30;97510.13;;;23.69;51.21
62025;BME280;47978;49.118;12.146;2022-07-30T10:31:04;97510.22;;;23.79;50.94
62025;BME280;47978;49.118;12.146;2022-07-30T10:33:50;97511.91;;;23.91;50.51
62025;BME280;47978;49.118;12.146;2022-07-30T10:36:20;97501.00;;;23.93;50.89
62025;BME280;47978;49.118;12.146;2022-07-30T10:38:50;97509.25;;;24.27;50.80
62025;BME280;47978;49.118;12.146;2022-07-30T10:41:28;97493.00;;;24.02;51.11
62025;BME280;47978;49.118;12.146;2022-07-30T10:44:40;97497.06;;;23.53;52.54
62025;BME280;47978;49.118;12.146;2022-07-30T10:47:13;97502.94;;;23.78;52.73
62025;BME280;47978;49.118;12.146;2022-07-30T10:50:05;97497.66;;;23.73;50.93
62025;BME280;47978;49.118;12.146;2022-07-30T10:52:47;97512.38;;;24.08;50.37
62025;BME280;47978;49.118;12.146;2022-07-30T10:55:15;97490.78;;;24.48;48.89
62025;BME280;47978;49.118;12.146;2022-07-30T10:57:58;97488.38;;;24.46;48.80
62025;BME280;47978;49.118;12.146;2022-07-30T11:00:27;97497.50;;;24.18;49.75
62025;BME280;47978;49.118;12.146;2022-07-30T11:03:11;97486.63;;;24.20;50.68
62025;BME280;47978;49.118;12.146;2022-07-30T11:05:41;97483.44;;;24.36;50.42
62025;BME280;47978;49.118;12.146;2022-07-30T11:08:30;97483.44;;;24.32;50.91
62025;BME280;47978;49.118;12.146;2022-07-30T11:11:02;97475.75;;;24.26;49.93
62025;BME280;47978;49.118;12.146;2022-07-30T11:13:52;97481.78;;;24.24;50.25
62025;BME280;47978;49.118;12.146;2022-07-30T11:16:22;97476.72;;;23.78;51.65
62025;BME280;47978;49.118;12.146;2022-07-30T11:19:07;97483.94;;;23.72;52.34
62025;BME280;47978;49.118;12.146;2022-07-30T11:22:22;97476.41;;;23.94;51.00
62025;BME280;47978;49.118;12.146;2022-07-30T11:24:50;97472.47;;;24.13;50.84
62025;BME280;47978;49.118;12.146;2022-07-30T11:27:34;97468.94;;;24.34;50.02
62025;BME280;47978;49.118;12.146;2022-07-30T11:30:03;97467.72;;;24.35;49.63
62025;BME280;47978;49.118;12.146;2022-07-30T11:32:32;97475.41;;;24.41;48.91
62025;BME280;47978;49.118;12.146;2022-07-30T11:35:16;97473.31;;;24.20;46.85
62025;BME280;47978;49.118;12.146;2022-07-30T11:38:01;97461.63;;;24.22;47.49
62025;BME280;47978;49.118;12.146;2022-07-30T11:40:31;97462.06;;;24.38;48.21
62025;BME280;47978;49.118;12.146;2022-07-30T11:43:16;97463.28;;;24.37;47.75
62025;BME280;47978;49.118;12.146;2022-07-30T11:45:44;97473.94;;;24.83;47.20
62025;BME280;47978;49.118;12.146;2022-07-30T11:48:14;97464.66;;;24.97;46.15
62025;BME280;47978;49.118;12.146;2022-07-30T11:50:41;97471.91;;;24.80;46.45
62025;BME280;47978;49.118;12.146;2022-07-30T11:53:09;97478.63;;;24.36;44.91
62025;BME280;47978;49.118;12.146;2022-07-30T11:55:40;97473.44;;;24.53;45.53
62025;BME280;47978;49.118;12.146;2022-07-30T11:58:08;97482.78;;;24.64;45.94
62025;BME280;47978;49.118;12.146;2022-07-30T12:00:37;97477.97;;;24.82;45.53
62025;BME280;47978;49.118;12.146;2022-07-30T12:03:13;97483.63;;;24.86;45.55
62025;BME280;47978;49.118;12.146;2022-07-30T12:05:41;97473.94;;;24.83;45.81
62025;BME280;47978;49.118;12.146;2022-07-30T12:08:08;97480.31;;;24.52;45.88
62025;BME280;47978;49.118;12.146;2022-07-30T12:10:58;97479.16;;;24.74;45.72
62025;BME280;47978;49.118;12.146;2022-07-30T12:13:26;97487.28;;;24.86;44.99
62025;BME280;47978;49.118;12.146;2022-07-30T12:16:12;97491.72;;;24.77;44.26
62025;BME280;47978;49.118;12.146;2022-07-30T12:18:41;97489.22;;;24.54;45.00
62025;BME280;47978;49.118;12.146;2022-07-30T12:21:09;97485.25;;;24.87;44.84
62025;BME280;47978;49.118;12.146;2022-07-30T12:23:36;97493.69;;;24.73;44.71
62025;BME280;47978;49.118;12.146;2022-07-30T12:26:03;97493.72;;;24.76;44.73
62025;BME280;47978;49.118;12.146;2022-07-30T12:28:31;97486.47;;;24.93;43.53
62025;BME280;47978;49.118;12.146;2022-07-30T12:30:59;97502.22;;;24.80;44.05
62025;BME280;47978;49.118;12.146;2022-07-30T12:33:25;97491.28;;;24.75;44.65
62025;BME280;47978;49.118;12.146;2022-07-30T12:35:55;97503.41;;;24.79;43.25
62025;BME280;47978;49.118;12.146;2022-07-30T12:38:24;97498.94;;;24.60;42.99
62025;BME280;47978;49.118;12.146;2022-07-30T12:40:56;97495.25;;;24.49;43.67
62025;BME280;47978;49.118;12.146;2022-07-30T12:43:45;97491.22;;;24.50;43.71
62025;BME280;47978;49.118;12.146;2022-07-30T12:46:13;97494.03;;;24.50;44.68
62025;BME280;47978;49.118;12.146;2022-07-30T12:48:51;97500.03;;;24.37;43.38
62025;BME280;47978;49.118;12.146;2022-07-30T12:51:22;97494.84;;;24.43;43.95
62025;BME280;47978;49.118;12.146;2022-07-30T12:53:50;97493.16;;;24.35;44.01
62025;BME280;47978;49.118;12.146;2022-07-30T12:56:18;97485.03;;;24.26;45.11
62025;BME280;47978;49.118;12.146;2022-07-30T12:58:45;97487.25;;;24.68;44.46
62025;BME280;47978;49.118;12.146;2022-07-30T13:01:14;97483.63;;;24.89;44.00
62025;BME280;47978;49.118;12.146;2022-07-30T13:03:41;97481.69;;;25.26;43.63
62025;BME280;47978;49.118;12.146;2022-07-30T13:06:13;97475.59;;;25.49;41.70